St Pierre — FIDX — position and weather

sailwx.info

Track history (hours):
 
Tides and Currents Weather Stations Pressure Air Temp Water Temp Dewpoint Dewpoint Depression Visibility Wind Speed Wind Dir Waves Ship Positions

St Pierre

Last reported at 2014-Oct-31 10:32 UTC. Time now 2014-Oct-31 15:07 UTC.
Position N 47°18' W 002°07'.

Length 84 m; draft 6.2 m.

Type: Cargo ship. MMSI: 228024800.

Date/timePositionNaut miles runAvg speedWind from/ knotsBaromVisibWave heightAir tempDewpointWater temp
2014-Oct-31 10:32N 47°18' W 002°07'0 0.0
2014-Oct-31 09:24N 47°18' W 002°07'0 0.0
2014-Oct-31 08:33N 47°18' W 002°07'0 0.0
2014-Oct-31 07:31N 47°18' W 002°07'0 0.0
2014-Oct-31 06:33N 47°18' W 002°07'0 0.0
2014-Oct-31 05:33N 47°18' W 002°07'0 0.0
2014-Oct-31 04:32N 47°18' W 002°07'0 0.0
2014-Oct-31 03:33N 47°18' W 002°07'0 0.0
2014-Oct-31 02:27N 47°18' W 002°07'0 0.0
2014-Oct-31 01:33N 47°18' W 002°07'0 0.0
2014-Oct-31 00:25N 47°18' W 002°07'0 0.0
2014-Oct-30 23:33N 47°18' W 002°07'0 0.0
2014-Oct-30 22:33N 47°18' W 002°07'1 0.7
2014-Oct-30 21:33N 47°18' W 002°06'1212.1
2014-Oct-30 20:33N 47°14' W 001°50'8 8.0
2014-Oct-30 19:31N 47°12' W 001°38'18 6.0
2014-Oct-30 16:32N 47°18' W 002°02'18 7.8
2014-Oct-30 14:15N 47°06' W 002°21'0 0.1
2014-Oct-30 11:13N 47°06' W 002°22'911.1
2014-Oct-30 10:25N 47°14' W 002°16'1011.2
2014-Oct-30 09:33N 47°18' W 002°03'18 9.0
2014-Oct-30 07:32N 47°12' W 001°38'0 0.0
2014-Oct-30 06:29N 47°12' W 001°38'0 0.0
2014-Oct-30 05:27N 47°12' W 001°38'0 0.0
2014-Oct-29 22:23N 47°12' W 001°38'0 0.0
2014-Oct-29 21:06N 47°12' W 001°38'0 0.0
2014-Oct-29 20:27N 47°12' W 001°38'0 0.0
2014-Oct-29 19:33N 47°12' W 001°38'0 0.0
2014-Oct-29 18:33N 47°12' W 001°38'0 0.1
2014-Oct-29 17:33N 47°12' W 001°38'10 9.8
2014-Oct-29 16:33N 47°16' W 001°51'1111.4
2014-Oct-29 15:33N 47°18' W 002°07'1111.1
2014-Oct-29 14:33N 47°10' W 002°19'5 4.5
2014-Oct-29 13:31N 47°06' W 002°21'0 0.1
2014-Oct-29 12:32N 47°06' W 002°21'0 0.3
2014-Oct-29 11:31N 47°06' W 002°21'1 1.1
2014-Oct-29 10:33N 47°07' W 002°21'1211.7
2014-Oct-29 09:30N 47°17' W 002°10'1111.6
2014-Oct-29 08:34N 47°17' W 001°54'1110.5
2014-Oct-29 07:33N 47°12' W 001°40'2 1.7
2014-Oct-29 06:34N 47°12' W 001°38'2 2.2
2014-Oct-29 05:33N 47°12' W 001°41'1110.8
2014-Oct-29 04:34N 47°17' W 001°55'1212.0
2014-Oct-29 03:33N 47°15' W 002°13'1110.9
2014-Oct-29 02:33N 47°06' W 002°21'0 0.0
2014-Oct-29 01:33N 47°06' W 002°21'0 0.1
2014-Oct-29 00:33N 47°06' W 002°21'0 0.0
2014-Oct-28 23:33N 47°06' W 002°21'0 0.0
2014-Oct-28 22:34N 47°06' W 002°21'0 0.3
2014-Oct-28 21:10N 47°06' W 002°21'0 0.3
2014-Oct-28 20:31N 47°05' W 002°21'0 0.2
2014-Oct-28 19:28N 47°06' W 002°21'7 7.7
2014-Oct-28 18:33N 47°12' W 002°17'9 9.2
2014-Oct-28 17:33N 47°18' W 002°07'0 0.0
2014-Oct-28 16:31N 47°18' W 002°07'0 0.0
2014-Oct-28 15:33N 47°18' W 002°07'0 0.0
2014-Oct-28 14:33N 47°18' W 002°07'0 0.0
2014-Oct-28 13:33N 47°18' W 002°07'0 0.0
2014-Oct-28 12:31N 47°18' W 002°07'0 0.0
2014-Oct-28 11:32N 47°18' W 002°07'0 0.0
2014-Oct-28 10:22N 47°18' W 002°07'0 0.0
2014-Oct-28 09:28N 47°18' W 002°07'0 0.0
2014-Oct-28 08:25N 47°18' W 002°07'0 0.0
2014-Oct-28 07:33N 47°18' W 002°07'0 0.0
2014-Oct-28 06:19N 47°18' W 002°07'0 0.0
2014-Oct-28 05:33N 47°18' W 002°07'0 0.0
2014-Oct-28 04:33N 47°18' W 002°07'0 0.0
2014-Oct-28 03:31N 47°18' W 002°07'0 0.0
2014-Oct-28 02:33N 47°18' W 002°07'0 0.0
2014-Oct-28 01:32N 47°18' W 002°07'0 0.0
2014-Oct-28 00:33N 47°18' W 002°07'0 0.0
2014-Oct-27 23:33N 47°18' W 002°07'0 0.0
2014-Oct-27 22:33N 47°18' W 002°07'0 0.0
2014-Oct-27 21:33N 47°18' W 002°07'0 0.0
2014-Oct-27 20:33N 47°18' W 002°07'0 0.0
2014-Oct-27 19:33N 47°18' W 002°07'0 0.0
2014-Oct-27 18:33N 47°18' W 002°07'0 0.0
2014-Oct-27 17:33N 47°18' W 002°07'0 0.0
2014-Oct-27 16:31N 47°18' W 002°07'0 0.0
2014-Oct-27 15:27N 47°18' W 002°07'0 0.0
2014-Oct-27 14:33N 47°18' W 002°07'0 0.0
2014-Oct-27 13:33N 47°18' W 002°07'0 0.0
2014-Oct-27 12:33N 47°18' W 002°07'0 0.0
2014-Oct-27 11:30N 47°18' W 002°07'0 0.0
2014-Oct-27 10:33N 47°18' W 002°07'0 0.0
2014-Oct-27 09:33N 47°18' W 002°07'0 0.0
2014-Oct-27 08:33N 47°18' W 002°07'0 0.0
2014-Oct-27 07:33N 47°18' W 002°07'0 0.0
2014-Oct-27 06:33N 47°18' W 002°07'0 0.0
2014-Oct-27 05:33N 47°18' W 002°07'0 0.0
2014-Oct-27 04:33N 47°18' W 002°07'0 0.0
2014-Oct-27 03:33N 47°18' W 002°07'0 0.0
2014-Oct-27 02:31N 47°18' W 002°07'0 0.0
2014-Oct-27 01:33N 47°18' W 002°07'0 0.0
2014-Oct-27 00:32N 47°18' W 002°07'0 0.0
2014-Oct-26 23:33N 47°18' W 002°07'0 0.0
2014-Oct-26 22:33N 47°18' W 002°07'0 0.0
2014-Oct-26 21:17N 47°18' W 002°07'0 0.0
2014-Oct-26 20:27N 47°18' W 002°07'0 0.0
2014-Oct-26 11:33N 47°18' W 002°07'0 0.0
2014-Oct-26 10:12N 47°18' W 002°07'0 0.0
2014-Oct-26 09:33N 47°18' W 002°07'0 0.0
2014-Oct-26 08:33N 47°18' W 002°07'0 0.0
2014-Oct-26 05:33N 47°18' W 002°07'0 0.0
2014-Oct-26 02:33N 47°18' W 002°07'0 0.0
2014-Oct-24 13:25N 47°18' W 002°07'16 8.3
2014-Oct-24 11:30N 47°06' W 002°21'0 0.2
2014-Oct-24 10:29N 47°06' W 002°21'0 0.3
2014-Oct-24 09:33N 47°06' W 002°21'15 6.6
2014-Oct-24 07:12N 47°18' W 002°08'0 0.0
2014-Oct-24 06:33N 47°18' W 002°08'0 0.0
2014-Oct-23 21:12N 47°18' W 002°08'0 0.0
2014-Oct-23 20:18N 47°18' W 002°08'0 0.0
2014-Oct-23 05:28N 47°18' W 002°07'0 0.0
2014-Oct-22 22:33N 47°18' W 002°07'0 0.0
2014-Oct-22 21:19N 47°18' W 002°07'  
Track history (hours):
 
Tides and Currents Weather Stations Pressure Air Temp Water Temp Dewpoint Dewpoint Depression Visibility Wind Speed Wind Dir Waves Ship Positions

St Pierre

Last reported at 2014-Oct-31 10:32 UTC. Time now 2014-Oct-31 15:07 UTC.
Position N 47°18' W 002°07'.

Length 84 m; draft 6.2 m.

Type: Cargo ship. MMSI: 228024800.

Date/timePositionNaut miles runAvg speedWind from/ knotsBaromVisibWave heightAir tempDewpointWater temp
2014-Oct-31 10:32N 47°18' W 002°07'0 0.0
2014-Oct-31 09:24N 47°18' W 002°07'0 0.0
2014-Oct-31 08:33N 47°18' W 002°07'0 0.0
2014-Oct-31 07:31N 47°18' W 002°07'0 0.0
2014-Oct-31 06:33N 47°18' W 002°07'0 0.0
2014-Oct-31 05:33N 47°18' W 002°07'0 0.0
2014-Oct-31 04:32N 47°18' W 002°07'0 0.0
2014-Oct-31 03:33N 47°18' W 002°07'0 0.0
2014-Oct-31 02:27N 47°18' W 002°07'0 0.0
2014-Oct-31 01:33N 47°18' W 002°07'0 0.0
2014-Oct-31 00:25N 47°18' W 002°07'0 0.0
2014-Oct-30 23:33N 47°18' W 002°07'0 0.0
2014-Oct-30 22:33N 47°18' W 002°07'1 0.7
2014-Oct-30 21:33N 47°18' W 002°06'1212.1
2014-Oct-30 20:33N 47°14' W 001°50'8 8.0
2014-Oct-30 19:31N 47°12' W 001°38'18 6.0
2014-Oct-30 16:32N 47°18' W 002°02'18 7.8
2014-Oct-30 14:15N 47°06' W 002°21'0 0.1
2014-Oct-30 11:13N 47°06' W 002°22'911.1
2014-Oct-30 10:25N 47°14' W 002°16'1011.2
2014-Oct-30 09:33N 47°18' W 002°03'18 9.0
2014-Oct-30 07:32N 47°12' W 001°38'0 0.0
2014-Oct-30 06:29N 47°12' W 001°38'0 0.0
2014-Oct-30 05:27N 47°12' W 001°38'0 0.0
2014-Oct-29 22:23N 47°12' W 001°38'0 0.0
2014-Oct-29 21:06N 47°12' W 001°38'0 0.0
2014-Oct-29 20:27N 47°12' W 001°38'0 0.0
2014-Oct-29 19:33N 47°12' W 001°38'0 0.0
2014-Oct-29 18:33N 47°12' W 001°38'0 0.1
2014-Oct-29 17:33N 47°12' W 001°38'10 9.8
2014-Oct-29 16:33N 47°16' W 001°51'1111.4
2014-Oct-29 15:33N 47°18' W 002°07'1111.1
2014-Oct-29 14:33N 47°10' W 002°19'5 4.5
2014-Oct-29 13:31N 47°06' W 002°21'0 0.1
2014-Oct-29 12:32N 47°06' W 002°21'0 0.3
2014-Oct-29 11:31N 47°06' W 002°21'1 1.1
2014-Oct-29 10:33N 47°07' W 002°21'1211.7
2014-Oct-29 09:30N 47°17' W 002°10'1111.6
2014-Oct-29 08:34N 47°17' W 001°54'1110.5
2014-Oct-29 07:33N 47°12' W 001°40'2 1.7
2014-Oct-29 06:34N 47°12' W 001°38'2 2.2
2014-Oct-29 05:33N 47°12' W 001°41'1110.8
2014-Oct-29 04:34N 47°17' W 001°55'1212.0
2014-Oct-29 03:33N 47°15' W 002°13'1110.9
2014-Oct-29 02:33N 47°06' W 002°21'0 0.0
2014-Oct-29 01:33N 47°06' W 002°21'0 0.1
2014-Oct-29 00:33N 47°06' W 002°21'0 0.0
2014-Oct-28 23:33N 47°06' W 002°21'0 0.0
2014-Oct-28 22:34N 47°06' W 002°21'0 0.3
2014-Oct-28 21:10N 47°06' W 002°21'0 0.3
2014-Oct-28 20:31N 47°05' W 002°21'0 0.2
2014-Oct-28 19:28N 47°06' W 002°21'7 7.7
2014-Oct-28 18:33N 47°12' W 002°17'9 9.2
2014-Oct-28 17:33N 47°18' W 002°07'0 0.0
2014-Oct-28 16:31N 47°18' W 002°07'0 0.0
2014-Oct-28 15:33N 47°18' W 002°07'0 0.0
2014-Oct-28 14:33N 47°18' W 002°07'0 0.0
2014-Oct-28 13:33N 47°18' W 002°07'0 0.0
2014-Oct-28 12:31N 47°18' W 002°07'0 0.0
2014-Oct-28 11:32N 47°18' W 002°07'0 0.0
2014-Oct-28 10:22N 47°18' W 002°07'0 0.0
2014-Oct-28 09:28N 47°18' W 002°07'0 0.0
2014-Oct-28 08:25N 47°18' W 002°07'0 0.0
2014-Oct-28 07:33N 47°18' W 002°07'0 0.0
2014-Oct-28 06:19N 47°18' W 002°07'0 0.0
2014-Oct-28 05:33N 47°18' W 002°07'0 0.0
2014-Oct-28 04:33N 47°18' W 002°07'0 0.0
2014-Oct-28 03:31N 47°18' W 002°07'0 0.0
2014-Oct-28 02:33N 47°18' W 002°07'0 0.0
2014-Oct-28 01:32N 47°18' W 002°07'0 0.0
2014-Oct-28 00:33N 47°18' W 002°07'0 0.0
2014-Oct-27 23:33N 47°18' W 002°07'0 0.0
2014-Oct-27 22:33N 47°18' W 002°07'0 0.0
2014-Oct-27 21:33N 47°18' W 002°07'0 0.0
2014-Oct-27 20:33N 47°18' W 002°07'0 0.0
2014-Oct-27 19:33N 47°18' W 002°07'0 0.0
2014-Oct-27 18:33N 47°18' W 002°07'0 0.0
2014-Oct-27 17:33N 47°18' W 002°07'0 0.0
2014-Oct-27 16:31N 47°18' W 002°07'0 0.0
2014-Oct-27 15:27N 47°18' W 002°07'0 0.0
2014-Oct-27 14:33N 47°18' W 002°07'0 0.0
2014-Oct-27 13:33N 47°18' W 002°07'0 0.0
2014-Oct-27 12:33N 47°18' W 002°07'0 0.0
2014-Oct-27 11:30N 47°18' W 002°07'0 0.0
2014-Oct-27 10:33N 47°18' W 002°07'0 0.0
2014-Oct-27 09:33N 47°18' W 002°07'0 0.0
2014-Oct-27 08:33N 47°18' W 002°07'0 0.0
2014-Oct-27 07:33N 47°18' W 002°07'0 0.0
2014-Oct-27 06:33N 47°18' W 002°07'0 0.0
2014-Oct-27 05:33N 47°18' W 002°07'0 0.0
2014-Oct-27 04:33N 47°18' W 002°07'0 0.0
2014-Oct-27 03:33N 47°18' W 002°07'0 0.0
2014-Oct-27 02:31N 47°18' W 002°07'0 0.0
2014-Oct-27 01:33N 47°18' W 002°07'0 0.0
2014-Oct-27 00:32N 47°18' W 002°07'0 0.0
2014-Oct-26 23:33N 47°18' W 002°07'0 0.0
2014-Oct-26 22:33N 47°18' W 002°07'0 0.0
2014-Oct-26 21:17N 47°18' W 002°07'0 0.0
2014-Oct-26 20:27N 47°18' W 002°07'0 0.0
2014-Oct-26 11:33N 47°18' W 002°07'0 0.0
2014-Oct-26 10:12N 47°18' W 002°07'0 0.0
2014-Oct-26 09:33N 47°18' W 002°07'0 0.0
2014-Oct-26 08:33N 47°18' W 002°07'0 0.0
2014-Oct-26 05:33N 47°18' W 002°07'0 0.0
2014-Oct-26 02:33N 47°18' W 002°07'0 0.0
2014-Oct-24 13:25N 47°18' W 002°07'16 8.3
2014-Oct-24 11:30N 47°06' W 002°21'0 0.2
2014-Oct-24 10:29N 47°06' W 002°21'0 0.3
2014-Oct-24 09:33N 47°06' W 002°21'15 6.6
2014-Oct-24 07:12N 47°18' W 002°08'0 0.0
2014-Oct-24 06:33N 47°18' W 002°08'0 0.0
2014-Oct-23 21:12N 47°18' W 002°08'0 0.0
2014-Oct-23 20:18N 47°18' W 002°08'0 0.0
2014-Oct-23 05:28N 47°18' W 002°07'0 0.0
2014-Oct-22 22:33N 47°18' W 002°07'0 0.0
2014-Oct-22 21:19N 47°18' W 002°07'  

Dump ship's entire track history